Time;durP1;ratioP1;P1;durP2;ratioP2;P2;SDS_P1;SDS_P2;PMS_P1;PMS_P2;Temp;Humidity;BMP_temperature;BMP_pressure;BME280_temperature;BME280_humidity;BME280_pressure;Samples;Min_cycle;Max_cycle;Signal;HPM_P1;HPM_P2
2022/09/05 00:02:02;;;;;;;2.78;2.03;;;21.90;99.90;;;;;;4972842;28;20249;-70
2022/09/05 00:04:28;;;;;;;2.50;2.30;;;21.90;1.00;;;;;;4972486;28;20221;-70
2022/09/05 00:07:27;;;;;;;2.00;1.90;;;21.90;1.00;;;;;;4972512;28;20176;-70
2022/09/05 00:10:21;;;;;;;2.53;2.30;;;21.90;1.00;;;;;;4972635;28;20225;-71
2022/09/05 00:12:48;;;;;;;2.25;2.05;;;21.80;1.00;;;;;;4971339;28;20245;-71
2022/09/05 00:15:27;;;;;;;2.38;1.92;;;21.80;1.00;;;;;;4972204;28;20224;-71
2022/09/05 00:17:55;;;;;;;2.95;2.30;;;21.80;1.00;;;;;;4972723;28;20183;-71
2022/09/05 00:20:21;;;;;;;2.55;2.33;;;21.80;99.90;;;;;;4972183;28;20197;-70
2022/09/05 00:23:21;;;;;;;2.50;2.22;;;21.80;99.90;;;;;;4972353;28;20701;-70
2022/09/05 00:26:13;;;;;;;4.70;2.40;;;21.70;99.90;;;;;;4972537;28;20180;-70
2022/09/05 00:29:02;;;;;;;2.53;2.35;;;21.70;99.90;;;;;;4972281;28;20282;-70
2022/09/05 00:31:41;;;;;;;2.33;2.13;;;21.70;1.00;;;;;;4971141;28;20325;-70
2022/09/05 00:34:44;;;;;;;2.20;2.00;;;21.70;1.00;;;;;;4972331;28;20650;-70
2022/09/05 00:37:10;;;;;;;2.60;2.40;;;21.70;1.00;;;;;;4972328;28;20178;-71
2022/09/05 00:39:39;;;;;;;2.75;2.53;;;21.80;1.00;;;;;;4972002;28;20199;-71
2022/09/05 00:42:12;;;;;;;2.55;2.10;;;21.80;1.00;;;;;;4972178;28;20183;-70
2022/09/05 00:44:50;;;;;;;2.63;2.20;;;21.80;1.00;;;;;;4972087;28;20179;-71
2022/09/05 00:47:22;;;;;;;2.58;2.38;;;21.70;1.00;;;;;;4972170;28;20633;-70
2022/09/05 00:50:19;;;;;;;3.45;2.33;;;21.70;1.00;;;;;;4971692;28;20183;-70
2022/09/05 00:52:56;;;;;;;2.22;2.10;;;21.70;1.00;;;;;;4971391;28;20666;-70
2022/09/05 00:56:01;;;;;;;2.72;2.40;;;21.60;1.00;;;;;;4971829;28;20168;-70
2022/09/05 00:58:27;;;;;;;3.15;2.88;;;21.60;1.00;;;;;;4951432;28;20237;-70
2022/09/05 01:00:55;;;;;;;3.65;2.65;;;21.60;1.00;;;;;;4971983;28;20215;-70
2022/09/05 01:03:42;;;;;;;3.67;3.38;;;21.60;1.00;;;;;;4971479;28;20679;-70
2022/09/05 01:06:23;;;;;;;4.70;4.30;;;21.60;82.10;;;;;;4971836;28;20596;-70
2022/09/05 01:09:09;;;;;;;7.55;6.40;;;21.50;99.90;;;;;;4971791;28;20203;-70
2022/09/05 01:11:52;;;;;;;8.70;7.13;;;21.50;99.90;;;;;;4971939;28;20168;-69
2022/09/05 01:14:36;;;;;;;12.73;7.43;;;21.60;99.90;;;;;;4971539;28;20299;-70
2022/09/05 01:17:30;;;;;;;9.20;7.38;;;21.60;43.20;;;;;;4971851;28;20183;-70
2022/09/05 01:20:20;;;;;;;8.32;6.70;;;21.60;93.10;;;;;;4971411;28;20254;-70
2022/09/05 01:23:18;;;;;;;10.48;6.40;;;21.60;99.90;;;;;;4971566;28;20659;-70
2022/09/05 01:26:23;;;;;;;6.00;5.10;;;21.60;99.90;;;;;;4950888;28;20651;-70
2022/09/05 01:29:03;;;;;;;8.00;4.97;;;21.50;99.90;;;;;;4971542;28;20167;-69
2022/09/05 01:31:40;;;;;;;5.22;4.32;;;21.50;1.00;;;;;;4971538;28;20218;-70
2022/09/05 01:34:15;;;;;;;4.90;4.07;;;21.40;1.00;;;;;;4970007;28;20171;-70
2022/09/05 01:37:09;;;;;;;4.40;3.10;;;21.40;1.00;;;;;;4971453;28;20206;-70
2022/09/05 01:39:43;;;;;;;3.25;3.05;;;21.40;1.00;;;;;;4970092;28;20212;-70
2022/09/05 01:42:28;;;;;;;4.10;2.95;;;21.40;31.20;;;;;;4971468;28;20180;-70
2022/09/05 01:45:23;;;;;;;3.03;2.80;;;21.30;99.90;;;;;;4971225;28;20175;-71
2022/09/05 01:48:25;;;;;;;3.72;2.70;;;21.20;1.00;;;;;;4971061;28;20168;-71
2022/09/05 01:51:16;;;;;;;3.08;2.70;;;21.10;99.90;;;;;;4956521;28;20627;-70
2022/09/05 01:54:18;;;;;;;3.03;2.53;;;21.10;1.00;;;;;;4971541;28;20172;-71
2022/09/05 01:57:15;;;;;;;2.80;2.60;;;21.10;1.00;;;;;;4950415;28;20210;-71
2022/09/05 01:59:54;;;;;;;2.80;2.60;;;21.00;99.90;;;;;;4970964;28;20211;-71
2022/09/05 02:02:22;;;;;;;2.80;2.60;;;21.00;99.90;;;;;;4970846;28;20179;-71
2022/09/05 02:05:04;;;;;;;4.18;2.38;;;21.00;99.90;;;;;;4971199;28;20183;-71
2022/09/05 02:07:56;;;;;;;3.80;2.60;;;21.00;99.90;;;;;;4971168;28;20669;-70
2022/09/05 02:10:43;;;;;;;3.13;2.20;;;20.90;1.00;;;;;;4974651;28;20180;-70
2022/09/05 02:13:21;;;;;;;2.45;2.25;;;20.80;1.00;;;;;;4974467;28;20192;-70
2022/09/05 02:16:07;;;;;;;2.67;2.47;;;20.80;38.60;;;;;;4973851;28;20227;-71
2022/09/05 02:18:35;;;;;;;2.58;2.38;;;20.80;99.90;;;;;;4974308;28;20168;-70
2022/09/05 02:21:08;;;;;;;3.80;2.97;;;20.70;1.00;;;;;;4974347;28;20260;-70
2022/09/05 02:23:49;;;;;;;2.30;2.20;;;20.60;99.90;;;;;;4974191;28;20168;-71
2022/09/05 02:26:24;;;;;;;3.03;2.80;;;20.70;1.00;;;;;;4974303;28;20176;-70
2022/09/05 02:29:11;;;;;;;3.05;2.80;;;20.60;1.00;;;;;;4974098;28;20190;-71
2022/09/05 02:31:50;;;;;;;2.60;2.40;;;20.70;1.00;;;;;;4973768;28;20312;-70
2022/09/05 02:34:41;;;;;;;2.58;2.38;;;20.60;99.90;;;;;;4974353;28;20180;-71
2022/09/05 02:37:35;;;;;;;2.50;2.38;;;20.60;1.00;;;;;;4974045;28;20176;-71
2022/09/05 02:40:07;;;;;;;3.42;2.50;;;20.60;1.00;;;;;;4974032;28;20724;-71
2022/09/05 02:42:50;;;;;;;2.78;2.53;;;20.60;1.00;;;;;;4973700;28;20234;-70
2022/09/05 02:45:36;;;;;;;2.55;2.35;;;20.60;95.00;;;;;;4973753;28;20172;-70
2022/09/05 02:48:13;;;;;;;2.60;2.40;;;20.60;1.00;;;;;;4973745;28;20635;-71
2022/09/05 02:50:56;;;;;;;2.88;2.67;;;20.60;1.00;;;;;;4973672;28;20269;-71
2022/09/05 02:53:24;;;;;;;3.30;2.38;;;20.50;99.90;;;;;;4972453;28;20176;-71
2022/09/05 02:56:13;;;;;;;2.60;2.40;;;20.50;1.00;;;;;;4973644;28;20592;-69
2022/09/05 02:58:54;;;;;;;2.40;2.20;;;20.60;1.00;;;;;;4973472;28;20176;-70
2022/09/05 03:01:28;;;;;;;2.40;2.20;;;20.50;1.00;;;;;;4973414;28;20196;-70
2022/09/05 03:04:02;;;;;;;2.53;2.30;;;20.60;99.90;;;;;;4973475;28;20175;-70
2022/09/05 03:06:41;;;;;;;2.60;2.40;;;20.50;99.90;;;;;;4973675;28;20183;-70
2022/09/05 03:09:28;;;;;;;2.50;2.30;;;20.60;99.90;;;;;;4973363;28;20254;-70
2022/09/05 03:12:05;;;;;;;3.10;2.30;;;20.50;99.90;;;;;;4973509;28;20245;-70
2022/09/05 03:14:45;;;;;;;2.78;2.50;;;20.50;1.00;;;;;;4972801;28;20706;-71
2022/09/05 03:17:32;;;;;;;2.22;2.13;;;20.50;1.00;;;;;;4973449;28;20310;-70
2022/09/05 03:20:25;;;;;;;2.55;2.35;;;20.60;99.90;;;;;;4972728;28;20611;-70
2022/09/05 03:23:19;;;;;;;4.47;2.63;;;20.50;1.00;;;;;;4973053;28;20650;-70
2022/09/05 03:25:48;;;;;;;2.38;2.20;;;20.40;69.50;;;;;;4972835;28;20180;-70
2022/09/05 03:28:17;;;;;;;3.00;2.45;;;20.50;1.00;;;;;;4973170;28;20275;-70
2022/09/05 03:31:09;;;;;;;2.75;2.42;;;20.50;1.00;;;;;;4972792;28;20228;-71
2022/09/05 03:33:35;;;;;;;2.42;2.33;;;20.40;1.00;;;;;;4973153;28;20258;-71
2022/09/05 03:36:28;;;;;;;3.40;2.35;;;20.40;27.30;;;;;;4973211;28;20176;-71
2022/09/05 03:39:18;;;;;;;2.33;2.15;;;20.40;99.90;;;;;;4972850;28;20164;-71
2022/09/05 03:42:11;;;;;;;2.58;2.35;;;20.40;37.60;;;;;;4971313;28;20175;-71
2022/09/05 03:45:13;;;;;;;2.70;2.45;;;20.40;17.80;;;;;;4972113;28;20570;-71
2022/09/05 03:48:02;;;;;;;4.18;2.20;;;20.40;1.00;;;;;;4953743;28;20258;-71
2022/09/05 03:50:31;;;;;;;2.53;2.30;;;20.40;1.00;;;;;;4971541;28;20173;-70
2022/09/05 03:53:22;;;;;;;2.83;2.42;;;20.40;1.00;;;;;;4972362;28;20171;-69
2022/09/05 03:56:01;;;;;;;2.60;2.40;;;20.30;1.00;;;;;;4972525;28;20176;-70
2022/09/05 03:58:59;;;;;;;2.53;2.38;;;20.30;1.00;;;;;;4972010;28;20176;-70
2022/09/05 04:01:34;;;;;;;2.58;2.38;;;20.30;1.00;;;;;;4972424;28;20195;-70
2022/09/05 04:04:11;;;;;;;2.65;2.45;;;20.30;1.00;;;;;;4972205;28;20178;-71
2022/09/05 04:06:58;;;;;;;3.80;2.63;;;20.30;1.00;;;;;;4972452;28;20195;-70
2022/09/05 04:09:32;;;;;;;2.22;2.00;;;20.30;1.00;;;;;;4972135;28;20199;-70
2022/09/05 04:12:11;;;;;;;3.13;2.22;;;20.30;43.90;;;;;;4971631;28;20250;-69
2022/09/05 04:14:57;;;;;;;2.42;2.05;;;20.30;99.90;;;;;;4971944;28;20308;-70
2022/09/05 04:17:45;;;;;;;2.58;2.38;;;20.30;1.00;;;;;;4970742;28;20180;-70
2022/09/05 04:20:20;;;;;;;2.60;2.40;;;20.30;1.00;;;;;;4972389;28;20208;-70
2022/09/05 04:23:09;;;;;;;2.55;2.35;;;20.30;1.00;;;;;;4972094;28;20168;-70
2022/09/05 04:25:53;;;;;;;2.72;2.08;;;20.30;99.90;;;;;;4971668;28;20172;-69
2022/09/05 04:28:36;;;;;;;3.08;2.28;;;20.30;99.90;;;;;;4971623;28;20168;-70
2022/09/05 04:31:08;;;;;;;2.58;2.28;;;20.30;93.10;;;;;;4971047;28;20278;-70
2022/09/05 04:33:59;;;;;;;2.30;2.10;;;20.40;1.00;;;;;;4972163;28;20248;-70
2022/09/05 04:36:27;;;;;;;2.35;2.15;;;20.30;1.00;;;;;;4971619;28;20244;-70
2022/09/05 04:39:24;;;;;;;3.42;2.30;;;20.40;99.90;;;;;;4971335;28;20207;-70
2022/09/05 04:41:58;;;;;;;2.22;2.10;;;20.40;1.00;;;;;;4970889;28;20192;-70
2022/09/05 04:44:37;;;;;;;2.30;2.20;;;20.40;1.00;;;;;;4971430;28;20176;-70
2022/09/05 04:47:34;;;;;;;3.88;2.40;;;20.40;99.90;;;;;;4970318;28;20175;-70
2022/09/05 04:50:13;;;;;;;2.70;2.50;;;20.40;99.90;;;;;;4971395;28;20191;-70
2022/09/05 04:52:50;;;;;;;2.42;2.28;;;20.40;99.90;;;;;;4969641;28;20215;-71
2022/09/05 04:55:22;;;;;;;2.65;2.13;;;20.50;73.70;;;;;;4970963;28;20172;-71
2022/09/05 04:58:05;;;;;;;3.08;2.22;;;20.50;1.00;;;;;;4971547;28;20275;-71
2022/09/05 05:00:56;;;;;;;2.42;2.30;;;20.60;1.00;;;;;;4970675;28;20667;-71
2022/09/05 05:03:26;;;;;;;2.28;2.10;;;20.50;1.00;;;;;;4971346;28;20202;-70
2022/09/05 05:06:00;;;;;;;4.97;2.35;;;20.60;1.00;;;;;;4970728;28;20175;-70
2022/09/05 05:08:44;;;;;;;3.47;2.40;;;20.70;1.00;;;;;;4971267;28;20182;-70
2022/09/05 05:11:18;;;;;;;2.65;2.22;;;20.70;99.90;;;;;;4970251;28;20667;-70
2022/09/05 05:13:48;;;;;;;3.83;2.20;;;20.80;99.90;;;;;;4970301;28;20192;-70
2022/09/05 05:16:20;;;;;;;2.55;2.35;;;20.80;37.60;;;;;;4970367;28;20179;-71
2022/09/05 05:18:50;;;;;;;4.22;2.58;;;20.90;1.00;;;;;;4970813;28;20176;-71
2022/09/05 05:21:19;;;;;;;6.32;2.70;;;21.10;1.00;;;;;;4970691;28;20310;-71
2022/09/05 05:23:56;;;;;;;10.98;2.63;;;21.30;1.00;;;;;;4970063;28;20187;-71
2022/09/05 05:26:39;;;;;;;2.75;2.35;;;21.80;99.90;;;;;;4969469;28;20559;-71
2022/09/05 05:29:15;;;;;;;1.90;1.80;;;22.30;1.00;;;;;;4970463;28;20202;-71
2022/09/05 05:32:12;;;;;;;13.32;3.33;;;22.80;1.00;;;;;;4970344;28;20167;-70
2022/09/05 05:34:45;;;;;;;5.32;2.30;;;23.00;1.00;;;;;;4969764;28;20188;-70
2022/09/05 05:37:30;;;;;;;2.30;1.90;;;22.60;1.00;;;;;;4970093;28;20650;-71
2022/09/05 05:40:14;;;;;;;2.85;2.28;;;22.30;1.00;;;;;;4969629;28;20204;-72
2022/09/05 05:42:40;;;;;;;7.45;2.15;;;22.30;1.00;;;;;;4970430;28;20188;-73
2022/09/05 05:45:17;;;;;;;2.40;2.30;;;22.30;1.00;;;;;;4973331;28;20627;-73
2022/09/05 05:47:47;;;;;;;2.40;2.20;;;22.20;1.00;;;;;;4972854;28;20183;-72
2022/09/05 05:50:32;;;;;;;2.67;2.17;;;22.20;1.00;;;;;;4973505;28;20165;-71
2022/09/05 05:53:29;;;;;;;3.25;2.03;;;22.20;1.00;;;;;;4973252;28;20179;-70
2022/09/05 05:56:31;;;;;;;2.95;2.42;;;22.10;1.00;;;;;;4972317;28;20545;-71
2022/09/05 05:59:30;;;;;;;2.80;2.22;;;22.30;1.00;;;;;;4973097;28;20203;-72
2022/09/05 06:02:03;;;;;;;4.13;2.00;;;22.90;1.00;;;;;;4972562;28;20530;-73
2022/09/05 06:05:12;;;;;;;3.47;2.30;;;23.20;1.00;;;;;;4972824;28;20573;-72
2022/09/05 06:07:51;;;;;;;4.53;2.10;;;23.20;1.00;;;;;;4972923;28;20180;-72
2022/09/05 06:10:31;;;;;;;2.38;2.00;;;23.40;1.00;;;;;;4972906;28;20172;-73
2022/09/05 06:13:23;;;;;;;2.15;2.05;;;23.30;1.00;;;;;;4972780;28;20224;-72
2022/09/05 06:16:12;;;;;;;2.13;2.03;;;23.30;1.00;;;;;;4972653;28;20228;-72
2022/09/05 06:18:50;;;;;;;2.33;2.10;;;23.40;1.00;;;;;;4972814;28;20203;-73
2022/09/05 06:21:28;;;;;;;3.25;2.10;;;24.10;99.90;;;;;;4972513;28;20268;-73
2022/09/05 06:24:47;;;;;;;3.47;2.53;;;24.80;99.90;;;;;;4972126;28;20255;-73
2022/09/05 06:27:27;;;;;;;2.92;2.20;;;25.20;99.90;;;;;;4932001;28;20220;-74
2022/09/05 06:30:07;;;;;;;6.03;2.40;;;25.70;99.90;;;;;;4968219;28;20180;-73
2022/09/05 06:32:54;;;;;;;2.80;2.28;;;26.20;99.90;;;;;;4972245;28;20263;-74
2022/09/05 06:35:26;;;;;;;6.93;2.05;;;26.60;99.90;;;;;;4972851;28;20180;-73
2022/09/05 06:38:03;;;;;;;3.22;2.30;;;26.10;99.90;;;;;;4972313;28;20196;-72
2022/09/05 06:40:51;;;;;;;7.90;2.47;;;26.30;99.90;;;;;;4971683;28;20219;-74
2022/09/05 06:43:26;;;;;;;4.55;2.40;;;26.60;99.90;;;;;;4972473;28;20176;-74
2022/09/05 06:46:29;;;;;;;7.43;2.42;;;27.40;99.90;;;;;;4972051;28;20174;-74
2022/09/05 06:49:19;;;;;;;2.17;1.83;;;27.30;99.90;;;;;;4971756;28;20168;-74
2022/09/05 06:51:44;;;;;;;3.85;2.20;;;27.60;99.90;;;;;;4972258;28;20179;-75
2022/09/05 06:54:44;;;;;;;2.38;2.15;;;28.10;99.90;;;;;;4989359;28;20187;-75
2022/09/05 06:57:18;;;;;;;3.67;2.30;;;28.60;99.90;;;;;;4986005;28;20184;-74
2022/09/05 07:00:10;;;;;;;5.35;2.33;;;29.10;99.90;;;;;;5002912;28;20200;-74
2022/09/05 07:03:07;;;;;;;6.43;2.72;;;28.80;99.90;;;;;;5030945;28;20175;-74
2022/09/05 07:05:57;;;;;;;2.67;2.03;;;29.60;99.90;;;;;;5051465;28;20182;-73
2022/09/05 07:08:43;;;;;;;2.78;1.92;;;30.10;99.90;;;;;;5023848;28;20317;-74
2022/09/05 07:11:30;;;;;;;2.78;2.05;;;30.60;99.90;;;;;;5000779;28;20184;-73
2022/09/05 07:14:16;;;;;;;3.70;2.33;;;31.00;99.90;;;;;;4974642;28;20226;-74
2022/09/05 07:16:51;;;;;;;2.17;2.00;;;32.00;93.80;;;;;;5033675;28;20172;-74
2022/09/05 07:19:40;;;;;;;2.75;2.28;;;32.50;81.80;;;;;;5006777;28;20179;-75
2022/09/05 07:23:01;;;;;;;5.57;2.63;;;33.30;56.60;;;;;;4972855;28;20194;-75
2022/09/05 07:25:29;;;;;;;3.60;2.03;;;34.00;41.70;;;;;;4983779;28;20263;-75
2022/09/05 07:28:07;;;;;;;4.13;2.17;;;34.20;24.20;;;;;;4974602;28;20185;-75
2022/09/05 07:30:35;;;;;;;9.23;2.72;;;34.00;25.40;;;;;;4966579;28;20263;-75
2022/09/05 07:33:03;;;;;;;3.80;2.20;;;34.40;19.30;;;;;;4970513;28;20196;-75
2022/09/05 07:35:37;;;;;;;3.33;2.30;;;34.40;16.10;;;;;;4961414;28;20199;-75
2022/09/05 07:38:13;;;;;;;3.10;2.53;;;34.60;12.30;;;;;;4973684;28;20186;-75
2022/09/05 07:41:05;;;;;;;2.58;1.80;;;34.60;11.90;;;;;;4976721;28;20215;-75
2022/09/05 07:43:41;;;;;;;4.00;2.47;;;35.80;2.90;;;;;;4976851;28;20313;-75
2022/09/05 07:46:19;;;;;;;2.78;1.83;;;36.60;1.00;;;;;;4972661;28;20254;-74
2022/09/05 07:48:54;;;;;;;2.53;2.10;;;36.40;1.00;;;;;;4964499;28;20179;-74
2022/09/05 07:51:25;;;;;;;5.57;1.98;;;34.30;1.00;;;;;;4969479;28;20592;-74
2022/09/05 07:53:54;;;;;;;2.70;2.15;;;34.30;1.00;;;;;;4967998;28;20274;-75
2022/09/05 07:56:44;;;;;;;2.85;2.10;;;35.00;9.20;;;;;;4966945;28;20195;-76
2022/09/05 07:59:13;;;;;;;2.88;1.80;;;36.30;1.00;;;;;;4974993;28;20246;-76
2022/09/05 08:01:42;;;;;;;2.10;2.00;;;35.50;1.00;;;;;;4976552;28;20180;-76
2022/09/05 08:04:11;;;;;;;2.50;1.70;;;35.50;1.00;;;;;;4961775;28;20186;-75
2022/09/05 08:06:39;;;;;;;3.50;2.15;;;35.40;1.00;;;;;;4969508;28;20176;-74
2022/09/05 08:09:16;;;;;;;5.57;2.10;;;34.90;1.00;;;;;;4960758;28;20242;-75
2022/09/05 08:11:42;;;;;;;5.28;2.30;;;33.50;1.00;;;;;;4965183;28;20222;-76
2022/09/05 08:14:12;;;;;;;4.97;1.98;;;34.20;1.00;;;;;;4970408;28;20215;-76
2022/09/05 08:16:38;;;;;;;3.58;2.08;;;34.80;1.00;;;;;;4969503;28;20179;-76
2022/09/05 08:19:40;;;;;;;4.10;2.08;;;36.00;1.00;;;;;;4967439;28;20180;-77
2022/09/05 08:22:08;;;;;;;2.80;2.00;;;35.90;1.00;;;;;;4971798;28;20174;-78
2022/09/05 08:24:42;;;;;;;4.10;2.22;;;36.10;1.00;;;;;;4975989;28;20197;-76
2022/09/05 08:27:14;;;;;;;2.63;2.00;;;35.40;1.00;;;;;;4969497;28;20183;-76
2022/09/05 08:29:44;;;;;;;2.35;1.70;;;35.80;1.00;;;;;;4974208;28;20183;-76
2022/09/05 08:32:39;;;;;;;2.92;1.90;;;34.60;1.00;;;;;;4959260;28;20591;-78
2022/09/05 08:35:17;;;;;;;3.63;2.10;;;35.40;1.00;;;;;;4962770;28;20187;-77
2022/09/05 08:37:44;;;;;;;1.70;1.60;;;35.30;1.00;;;;;;4970107;28;20254;-77
2022/09/05 08:40:34;;;;;;;5.28;1.92;;;35.50;1.00;;;;;;4972933;28;20310;-76
2022/09/05 08:43:35;;;;;;;4.93;2.65;;;35.80;1.00;;;;;;4968157;28;20706;-76
2022/09/05 08:46:12;;;;;;;2.92;2.10;;;36.60;1.00;;;;;;4966787;28;20202;-77
2022/09/05 08:49:32;;;;;;;6.32;2.20;;;37.30;1.00;;;;;;4971457;28;20210;-78
2022/09/05 08:52:22;;;;;;;8.95;2.72;;;37.80;1.00;;;;;;4995761;28;20194;-76
2022/09/05 08:55:16;;;;;;;5.10;2.10;;;36.80;1.00;;;;;;4968280;28;20196;-74
2022/09/05 08:57:45;;;;;;;3.15;2.00;;;35.40;1.00;;;;;;4969065;28;20187;-75
2022/09/05 09:00:15;;;;;;;5.40;2.40;;;34.60;1.00;;;;;;4959721;28;20230;-77
2022/09/05 09:03:05;;;;;;;3.17;1.88;;;34.80;1.00;;;;;;4978993;28;20182;-75
2022/09/05 09:06:00;;;;;;;2.65;1.83;;;34.60;1.00;;;;;;4967274;28;20176;-76
2022/09/05 09:08:52;;;;;;;3.08;1.60;;;34.40;1.00;;;;;;4984475;28;20188;-77
2022/09/05 09:11:33;;;;;;;2.90;1.90;;;33.80;1.00;;;;;;4963244;28;20184;-77
2022/09/05 09:14:25;;;;;;;1.90;1.80;;;33.40;1.00;;;;;;4967049;28;20669;-75
2022/09/05 09:17:18;;;;;;;5.05;2.08;;;33.70;1.00;;;;;;5002938;28;20215;-75
2022/09/05 09:20:10;;;;;;;2.10;1.90;;;34.00;1.00;;;;;;4998594;28;20207;-74
2022/09/05 09:22:51;;;;;;;4.68;1.70;;;33.80;1.00;;;;;;4962572;28;20196;-77
2022/09/05 09:25:31;;;;;;;3.83;2.03;;;33.90;1.00;;;;;;4969494;28;20191;-77
2022/09/05 09:28:41;;;;;;;2.92;2.10;;;34.20;1.00;;;;;;4970474;28;20181;-77
2022/09/05 09:31:14;;;;;;;3.53;1.90;;;34.40;1.00;;;;;;4967279;28;20179;-77
2022/09/05 09:34:04;;;;;;;4.53;1.75;;;34.30;1.00;;;;;;4981590;28;20184;-78
2022/09/05 09:36:47;;;;;;;4.78;2.40;;;34.00;1.00;;;;;;4970340;28;20182;-78
2022/09/05 09:39:32;;;;;;;4.13;2.10;;;34.30;1.00;;;;;;5000445;28;20180;-77
2022/09/05 09:42:35;;;;;;;3.83;2.13;;;35.10;1.00;;;;;;4980516;28;20277;-76
2022/09/05 09:45:15;;;;;;;1.90;1.80;;;36.10;1.00;;;;;;4993147;28;20230;-76
2022/09/05 09:48:09;;;;;;;3.67;1.95;;;35.80;1.00;;;;;;4971197;28;20178;-76
2022/09/05 09:50:56;;;;;;;3.40;2.05;;;35.50;1.00;;;;;;4970645;28;20182;-77
2022/09/05 09:53:32;;;;;;;3.65;2.40;;;34.60;1.00;;;;;;4959006;28;20646;-76
2022/09/05 09:56:22;;;;;;;2.90;1.90;;;35.00;1.00;;;;;;4975508;28;20178;-77
2022/09/05 09:59:16;;;;;;;3.92;2.10;;;35.40;1.00;;;;;;4999548;28;20266;-78
2022/09/05 10:02:21;;;;;;;4.50;2.60;;;36.20;1.00;;;;;;4932882;28;20191;-76
2022/09/05 10:05:18;;;;;;;4.20;2.20;;;36.50;1.00;;;;;;4934848;28;20652;-77
2022/09/05 10:08:02;;;;;;;2.40;1.75;;;35.30;1.00;;;;;;4925480;28;20652;-76
2022/09/05 10:10:30;;;;;;;2.95;2.20;;;35.00;1.00;;;;;;4943870;29;20279;-77
2022/09/05 10:13:37;;;;;;;2.97;2.05;;;35.30;1.00;;;;;;4930979;28;20285;-77
2022/09/05 10:16:25;;;;;;;3.88;2.30;;;34.90;1.00;;;;;;4925797;28;20201;-77
2022/09/05 10:19:21;;;;;;;3.83;2.00;;;34.40;1.00;;;;;;4967066;28;20261;-78
2022/09/05 10:22:08;;;;;;;1.90;1.80;;;34.40;1.00;;;;;;4945803;28;20695;-76
2022/09/05 10:25:01;;;;;;;4.93;2.97;;;33.60;1.00;;;;;;4943406;28;20185;-76
2022/09/05 10:27:42;;;;;;;2.75;2.20;;;32.70;1.00;;;;;;4925725;29;20294;-75
2022/09/05 10:30:18;;;;;;;6.70;3.05;;;32.30;1.00;;;;;;4930451;29;20181;-77
2022/09/05 10:33:10;;;;;;;3.85;2.40;;;33.10;1.00;;;;;;4932040;29;20189;-80
2022/09/05 10:35:41;;;;;;;3.97;2.53;;;34.60;1.00;;;;;;4979637;28;20548;-77
2022/09/05 10:38:15;;;;;;;2.47;2.00;;;34.60;1.00;;;;;;4929619;28;20189;-78
2022/09/05 10:40:46;;;;;;;2.33;2.08;;;35.20;1.00;;;;;;4953752;28;20287;-76
2022/09/05 10:43:27;;;;;;;3.33;1.90;;;34.90;1.00;;;;;;4963598;28;20658;-76
2022/09/05 10:46:11;;;;;;;4.72;2.00;;;33.60;1.00;;;;;;4972516;28;20227;-75
2022/09/05 10:48:51;;;;;;;4.03;2.15;;;33.00;1.00;;;;;;4972775;28;20168;-77
2022/09/05 10:51:33;;;;;;;2.55;2.15;;;33.10;1.00;;;;;;4972565;28;20180;-78
2022/09/05 10:54:26;;;;;;;4.72;3.20;;;34.80;1.00;;;;;;4961674;28;20216;-78
2022/09/05 10:57:36;;;;;;;6.47;2.70;;;36.70;1.00;;;;;;4953374;29;20179;-80
2022/09/05 11:00:08;;;;;;;2.63;2.08;;;38.00;1.00;;;;;;4959486;28;20230;-76
2022/09/05 11:02:40;;;;;;;8.73;2.70;;;37.80;1.00;;;;;;4971628;28;20195;-76
2022/09/05 11:05:10;;;;;;;1.77;1.67;;;38.00;1.00;;;;;;4972558;28;20639;-76
2022/09/05 11:08:06;;;;;;;3.03;1.60;;;36.40;1.00;;;;;;4974379;28;20171;-76
2022/09/05 11:10:51;;;;;;;2.25;1.70;;;35.10;1.00;;;;;;4971740;28;20176;-77
2022/09/05 11:13:35;;;;;;;8.85;2.35;;;34.00;1.00;;;;;;4971907;28;20183;-75
2022/09/05 11:16:31;;;;;;;6.78;2.47;;;34.10;1.00;;;;;;4972370;28;20184;-76
2022/09/05 11:19:01;;;;;;;4.93;1.73;;;33.70;1.00;;;;;;4951822;28;20683;-75
2022/09/05 11:21:59;;;;;;;4.78;1.75;;;33.90;1.00;;;;;;4952796;28;20208;-77
2022/09/05 11:24:43;;;;;;;2.78;1.60;;;34.10;1.00;;;;;;4968874;28;20188;-75
2022/09/05 11:27:18;;;;;;;2.58;1.70;;;33.90;1.00;;;;;;4971830;28;20226;-75
2022/09/05 11:29:49;;;;;;;1.73;1.63;;;33.80;1.00;;;;;;4972197;28;20172;-75
2022/09/05 11:32:29;;;;;;;2.88;1.63;;;34.20;1.00;;;;;;4978165;28;20251;-76
2022/09/05 11:35:04;;;;;;;2.00;1.90;;;34.90;1.00;;;;;;4972229;28;21325;-76
2022/09/05 11:38:01;;;;;;;1.83;1.70;;;35.50;1.00;;;;;;4998112;28;20218;-78
2022/09/05 11:40:33;;;;;;;4.05;1.60;;;35.90;1.00;;;;;;4968996;28;20261;-78
2022/09/05 11:43:22;;;;;;;3.45;1.63;;;36.60;1.00;;;;;;5010580;28;20164;-77
2022/09/05 11:45:57;;;;;;;6.25;1.90;;;36.90;1.00;;;;;;4988708;28;20224;-76
2022/09/05 11:49:00;;;;;;;1.70;1.60;;;37.50;1.00;;;;;;5022231;28;20227;-75
2022/09/05 11:51:47;;;;;;;2.08;1.50;;;37.20;1.00;;;;;;4977875;28;20183;-75
2022/09/05 11:54:43;;;;;;;2.50;1.70;;;36.80;1.00;;;;;;5052832;28;20179;-76
2022/09/05 11:57:46;;;;;;;3.65;2.03;;;36.40;1.00;;;;;;4966666;28;20172;-75
2022/09/05 12:00:14;;;;;;;7.95;2.92;;;34.80;1.00;;;;;;5021473;28;20207;-76
2022/09/05 12:03:17;;;;;;;2.25;1.65;;;34.70;1.00;;;;;;5062479;28;20180;-77
2022/09/05 12:05:51;;;;;;;4.68;2.25;;;34.40;1.00;;;;;;4977237;28;20615;-77
2022/09/05 12:08:23;;;;;;;3.78;2.58;;;34.30;1.00;;;;;;4973321;28;20224;-77
2022/09/05 12:11:19;;;;;;;3.38;1.60;;;34.20;1.00;;;;;;4959543;28;20224;-77
2022/09/05 12:14:04;;;;;;;2.67;1.85;;;34.20;1.00;;;;;;4982691;28;20211;-78
2022/09/05 12:16:51;;;;;;;7.07;1.70;;;34.20;1.00;;;;;;4989899;28;20188;-77
2022/09/05 12:19:46;;;;;;;4.20;2.08;;;34.00;1.00;;;;;;4967326;28;20186;-77
2022/09/05 12:22:17;;;;;;;4.43;1.77;;;34.10;1.00;;;;;;4973894;28;20258;-76
2022/09/05 12:25:04;;;;;;;4.03;1.90;;;34.30;1.00;;;;;;4975229;28;20190;-77
2022/09/05 12:27:33;;;;;;;5.82;2.75;;;34.20;1.00;;;;;;4960218;28;20176;-76
2022/09/05 12:30:04;;;;;;;2.78;1.48;;;34.20;1.00;;;;;;4969184;28;20191;-78
2022/09/05 12:32:32;;;;;;;1.88;1.67;;;34.20;1.00;;;;;;4990498;28;20546;-77
2022/09/05 12:35:00;;;;;;;3.17;1.80;;;33.90;1.00;;;;;;4968802;28;20227;-77
2022/09/05 12:38:13;;;;;;;3.58;1.95;;;33.60;1.00;;;;;;4969781;28;20245;-79
2022/09/05 12:40:50;;;;;;;2.88;1.70;;;33.10;1.00;;;;;;5000570;28;20301;-75
2022/09/05 12:43:22;;;;;;;1.80;1.70;;;32.60;1.00;;;;;;4992202;28;20246;-76
2022/09/05 12:46:04;;;;;;;4.70;1.70;;;32.20;1.00;;;;;;5002875;28;20194;-77
2022/09/05 12:49:01;;;;;;;4.13;2.00;;;32.40;1.00;;;;;;4997293;28;20189;-76
2022/09/05 12:51:32;;;;;;;3.80;1.80;;;32.50;1.00;;;;;;4975363;28;20262;-77
2022/09/05 12:54:12;;;;;;;3.03;1.95;;;32.50;1.00;;;;;;4966947;28;20635;-76
2022/09/05 12:56:37;;;;;;;3.25;2.13;;;32.30;1.00;;;;;;4945286;28;20191;-77
2022/09/05 12:59:06;;;;;;;4.22;2.08;;;32.50;1.00;;;;;;4962289;28;20242;-76
2022/09/05 13:01:34;;;;;;;2.15;2.00;;;32.70;1.00;;;;;;4967768;28;20235;-76
2022/09/05 13:04:01;;;;;;;5.28;2.33;;;32.70;1.00;;;;;;4967675;28;20184;-76
2022/09/05 13:06:39;;;;;;;2.70;1.75;;;32.60;1.00;;;;;;4957486;28;20664;-78
2022/09/05 13:09:20;;;;;;;2.35;1.60;;;32.70;1.00;;;;;;4965793;28;20493;-76
2022/09/05 13:12:02;;;;;;;2.30;1.60;;;32.80;1.00;;;;;;4975799;28;20211;-75
2022/09/05 13:14:30;;;;;;;2.20;2.08;;;33.00;1.00;;;;;;4976893;28;20224;-76
2022/09/05 13:16:58;;;;;;;3.75;1.90;;;32.90;1.00;;;;;;4945416;28;20216;-76
2022/09/05 13:19:50;;;;;;;2.45;1.80;;;32.90;1.00;;;;;;4955987;28;20249;-75
2022/09/05 13:22:18;;;;;;;3.65;1.90;;;32.80;1.00;;;;;;4933291;28;20368;-76
2022/09/05 13:24:52;;;;;;;3.22;1.77;;;32.90;1.00;;;;;;4947964;28;20188;-76
2022/09/05 13:27:32;;;;;;;2.15;1.90;;;33.20;1.00;;;;;;4958414;28;20200;-76
2022/09/05 13:30:07;;;;;;;2.10;1.88;;;33.10;1.00;;;;;;4975550;28;20179;-77
2022/09/05 13:32:36;;;;;;;4.88;2.13;;;32.80;1.00;;;;;;4974100;28;20178;-77
2022/09/05 13:35:28;;;;;;;2.10;1.90;;;32.70;1.00;;;;;;4983634;28;20286;-76
2022/09/05 13:38:12;;;;;;;2.45;2.10;;;32.80;1.00;;;;;;5005026;28;20187;-77
2022/09/05 13:40:49;;;;;;;3.75;2.00;;;33.10;1.00;;;;;;4971779;28;20212;-76
2022/09/05 13:43:15;;;;;;;3.42;1.92;;;33.10;1.00;;;;;;4960747;28;20333;-77
2022/09/05 13:46:03;;;;;;;4.68;1.90;;;33.30;1.00;;;;;;4976533;28;20183;-78
2022/09/05 13:48:48;;;;;;;2.45;1.98;;;33.20;1.00;;;;;;4978316;28;20184;-77
2022/09/05 13:51:32;;;;;;;3.75;2.00;;;33.30;1.00;;;;;;4967804;28;20770;-77
2022/09/05 13:54:25;;;;;;;3.33;1.75;;;33.60;1.00;;;;;;4965592;28;20172;-77
2022/09/05 13:56:54;;;;;;;2.65;1.90;;;33.80;1.00;;;;;;4969572;28;20191;-74
2022/09/05 13:59:23;;;;;;;3.05;2.22;;;33.60;1.00;;;;;;4964779;28;20192;-75
2022/09/05 14:01:58;;;;;;;3.00;2.20;;;33.50;1.00;;;;;;4977149;28;20177;-75
2022/09/05 14:04:27;;;;;;;3.67;2.30;;;33.50;1.00;;;;;;4991152;28;20179;-77
2022/09/05 14:07:01;;;;;;;2.10;1.90;;;32.90;1.00;;;;;;4969213;28;20184;-76
2022/09/05 14:09:34;;;;;;;1.95;1.80;;;32.50;1.00;;;;;;4963032;28;20260;-76
2022/09/05 14:12:28;;;;;;;6.05;2.30;;;32.20;1.00;;;;;;4973535;28;20210;-75
2022/09/05 14:15:17;;;;;;;3.72;2.00;;;32.40;1.00;;;;;;4963243;28;20262;-76